sensor_id;sensor_type;location;lat;lon;timestamp;pressure;altitude;pressure_sealevel;temperature;humidity
82931;BME280;72705;53.346;10.248;2024-03-22T00:00:30;101966.69;;;7.21;100.00
82931;BME280;72705;53.346;10.248;2024-03-22T00:02:56;101960.19;;;7.37;100.00
82931;BME280;72705;53.346;10.248;2024-03-22T00:05:21;101944.00;;;7.25;100.00
82931;BME280;72705;53.346;10.248;2024-03-22T00:07:47;101951.81;;;7.28;100.00
82931;BME280;72705;53.346;10.248;2024-03-22T00:10:12;101954.75;;;7.25;100.00
82931;BME280;72705;53.346;10.248;2024-03-22T00:12:39;101945.72;;;7.26;100.00
82931;BME280;72705;53.346;10.248;2024-03-22T00:15:04;101945.50;;;7.29;100.00
82931;BME280;72705;53.346;10.248;2024-03-22T00:17:30;101939.16;;;7.30;100.00
82931;BME280;72705;53.346;10.248;2024-03-22T00:19:56;101923.31;;;7.27;100.00
82931;BME280;72705;53.346;10.248;2024-03-22T00:22:21;101918.16;;;7.24;100.00
82931;BME280;72705;53.346;10.248;2024-03-22T00:24:47;101925.75;;;7.30;100.00
82931;BME280;72705;53.346;10.248;2024-03-22T00:27:12;101919.81;;;7.38;100.00
82931;BME280;72705;53.346;10.248;2024-03-22T00:29:38;101913.81;;;7.35;100.00
82931;BME280;72705;53.346;10.248;2024-03-22T00:32:04;101902.88;;;7.38;100.00
82931;BME280;72705;53.346;10.248;2024-03-22T00:34:29;101884.44;;;7.33;100.00
82931;BME280;72705;53.346;10.248;2024-03-22T00:36:55;101888.22;;;7.42;100.00
82931;BME280;72705;53.346;10.248;2024-03-22T00:39:20;101885.22;;;7.46;100.00
82931;BME280;72705;53.346;10.248;2024-03-22T00:41:45;101885.22;;;7.46;100.00
82931;BME280;72705;53.346;10.248;2024-03-22T00:44:11;101873.63;;;7.46;100.00
82931;BME280;72705;53.346;10.248;2024-03-22T00:46:36;101870.72;;;7.49;100.00
82931;BME280;72705;53.346;10.248;2024-03-22T00:49:02;101877.34;;;7.56;100.00
82931;BME280;72705;53.346;10.248;2024-03-22T00:51:28;101880.25;;;7.53;100.00
82931;BME280;72705;53.346;10.248;2024-03-22T00:53:53;101883.00;;;7.64;100.00
82931;BME280;72705;53.346;10.248;2024-03-22T00:56:19;101872.94;;;7.55;100.00
82931;BME280;72705;53.346;10.248;2024-03-22T00:58:44;101873.56;;;7.58;100.00
82931;BME280;72705;53.346;10.248;2024-03-22T01:01:09;101870.94;;;7.69;100.00
82931;BME280;72705;53.346;10.248;2024-03-22T01:03:35;101863.22;;;7.65;100.00
82931;BME280;72705;53.346;10.248;2024-03-22T01:06:01;101874.00;;;7.76;100.00
82931;BME280;72705;53.346;10.248;2024-03-22T01:08:27;101868.13;;;7.71;100.00
82931;BME280;72705;53.346;10.248;2024-03-22T01:10:53;101865.44;;;7.71;100.00
82931;BME280;72705;53.346;10.248;2024-03-22T01:13:18;101863.97;;;7.78;100.00
82931;BME280;72705;53.346;10.248;2024-03-22T01:15:46;101858.09;;;7.73;100.00
82931;BME280;72705;53.346;10.248;2024-03-22T01:18:12;101849.84;;;7.76;100.00
82931;BME280;72705;53.346;10.248;2024-03-22T01:20:39;101845.19;;;7.78;100.00
82931;BME280;72705;53.346;10.248;2024-03-22T01:23:04;101833.00;;;7.85;100.00
82931;BME280;72705;53.346;10.248;2024-03-22T01:25:30;101819.94;;;7.81;100.00
82931;BME280;72705;53.346;10.248;2024-03-22T01:27:55;101811.03;;;7.91;100.00
82931;BME280;72705;53.346;10.248;2024-03-22T01:30:21;101813.00;;;7.89;100.00
82931;BME280;72705;53.346;10.248;2024-03-22T01:32:46;101810.56;;;7.97;100.00
82931;BME280;72705;53.346;10.248;2024-03-22T01:35:12;101807.75;;;7.99;100.00
82931;BME280;72705;53.346;10.248;2024-03-22T01:37:37;101813.75;;;8.02;100.00
82931;BME280;72705;53.346;10.248;2024-03-22T01:40:03;101806.16;;;7.96;100.00
82931;BME280;72705;53.346;10.248;2024-03-22T01:42:30;101807.66;;;8.00;100.00
82931;BME280;72705;53.346;10.248;2024-03-22T01:44:55;101799.69;;;7.99;100.00
82931;BME280;72705;53.346;10.248;2024-03-22T01:47:21;101800.06;;;7.94;100.00
82931;BME280;72705;53.346;10.248;2024-03-22T01:49:47;101790.78;;;7.98;100.00
82931;BME280;72705;53.346;10.248;2024-03-22T01:52:14;101779.81;;;8.01;100.00
82931;BME280;72705;53.346;10.248;2024-03-22T01:54:39;101773.22;;;7.94;100.00
82931;BME280;72705;53.346;10.248;2024-03-22T01:57:05;101759.19;;;8.02;100.00
82931;BME280;72705;53.346;10.248;2024-03-22T01:59:33;101742.94;;;7.92;100.00
82931;BME280;72705;53.346;10.248;2024-03-22T02:02:00;101735.59;;;8.05;100.00
82931;BME280;72705;53.346;10.248;2024-03-22T02:04:25;101735.13;;;8.00;100.00
82931;BME280;72705;53.346;10.248;2024-03-22T02:06:50;101731.47;;;8.01;100.00
82931;BME280;72705;53.346;10.248;2024-03-22T02:09:16;101724.50;;;7.99;100.00
82931;BME280;72705;53.346;10.248;2024-03-22T02:11:42;101725.59;;;8.07;100.00
82931;BME280;72705;53.346;10.248;2024-03-22T02:14:08;101704.59;;;8.01;100.00
82931;BME280;72705;53.346;10.248;2024-03-22T02:16:33;101710.56;;;8.05;100.00
82931;BME280;72705;53.346;10.248;2024-03-22T02:18:59;101696.16;;;8.06;100.00
82931;BME280;72705;53.346;10.248;2024-03-22T02:21:25;101699.47;;;8.21;100.00
82931;BME280;72705;53.346;10.248;2024-03-22T02:23:50;101688.94;;;8.18;100.00
82931;BME280;72705;53.346;10.248;2024-03-22T02:26:15;101694.56;;;8.26;100.00
82931;BME280;72705;53.346;10.248;2024-03-22T02:28:41;101691.63;;;8.18;100.00
82931;BME280;72705;53.346;10.248;2024-03-22T02:31:06;101687.50;;;8.13;100.00
82931;BME280;72705;53.346;10.248;2024-03-22T02:33:31;101686.66;;;8.13;100.00
82931;BME280;72705;53.346;10.248;2024-03-22T02:35:57;101674.28;;;8.22;100.00
82931;BME280;72705;53.346;10.248;2024-03-22T02:38:23;101681.88;;;8.17;100.00
82931;BME280;72705;53.346;10.248;2024-03-22T02:40:51;101678.94;;;8.20;100.00
82931;BME280;72705;53.346;10.248;2024-03-22T02:43:17;101680.38;;;8.24;100.00
82931;BME280;72705;53.346;10.248;2024-03-22T02:45:44;101683.34;;;8.21;100.00
82931;BME280;72705;53.346;10.248;2024-03-22T02:48:11;101669.41;;;8.16;100.00
82931;BME280;72705;53.346;10.248;2024-03-22T02:50:37;101684.69;;;8.37;100.00
82931;BME280;72705;53.346;10.248;2024-03-22T02:53:03;101686.03;;;8.32;100.00
82931;BME280;72705;53.346;10.248;2024-03-22T02:55:28;101689.91;;;8.28;100.00
82931;BME280;72705;53.346;10.248;2024-03-22T02:57:56;101685.78;;;8.35;100.00
82931;BME280;72705;53.346;10.248;2024-03-22T03:00:22;101691.78;;;8.38;100.00
82931;BME280;72705;53.346;10.248;2024-03-22T03:02:47;101671.38;;;8.36;100.00
82931;BME280;72705;53.346;10.248;2024-03-22T03:05:13;101679.66;;;8.44;100.00
82931;BME280;72705;53.346;10.248;2024-03-22T03:07:38;101677.47;;;8.38;100.00
82931;BME280;72705;53.346;10.248;2024-03-22T03:10:04;101682.13;;;8.36;100.00
82931;BME280;72705;53.346;10.248;2024-03-22T03:12:29;101675.38;;;8.41;100.00
82931;BME280;72705;53.346;10.248;2024-03-22T03:14:54;101661.56;;;8.46;100.00
82931;BME280;72705;53.346;10.248;2024-03-22T03:17:20;101666.00;;;8.36;100.00
82931;BME280;72705;53.346;10.248;2024-03-22T03:19:45;101662.22;;;8.38;100.00
82931;BME280;72705;53.346;10.248;2024-03-22T03:22:10;101661.56;;;8.46;100.00
82931;BME280;72705;53.346;10.248;2024-03-22T03:24:36;101654.34;;;8.46;100.00
82931;BME280;72705;53.346;10.248;2024-03-22T03:27:01;101652.41;;;8.48;100.00
82931;BME280;72705;53.346;10.248;2024-03-22T03:29:27;101663.72;;;8.52;100.00
82931;BME280;72705;53.346;10.248;2024-03-22T03:31:54;101659.22;;;8.52;100.00
82931;BME280;72705;53.346;10.248;2024-03-22T03:34:19;101645.78;;;8.52;100.00
82931;BME280;72705;53.346;10.248;2024-03-22T03:36:47;101643.47;;;8.48;100.00
82931;BME280;72705;53.346;10.248;2024-03-22T03:39:12;101634.16;;;8.52;100.00
82931;BME280;72705;53.346;10.248;2024-03-22T03:41:37;101627.34;;;8.48;100.00
82931;BME280;72705;53.346;10.248;2024-03-22T03:44:03;101629.97;;;8.59;100.00
82931;BME280;72705;53.346;10.248;2024-03-22T03:46:29;101627.97;;;8.51;100.00
82931;BME280;72705;53.346;10.248;2024-03-22T03:48:54;101623.75;;;8.59;100.00
82931;BME280;72705;53.346;10.248;2024-03-22T03:51:20;101613.84;;;8.59;100.00
82931;BME280;72705;53.346;10.248;2024-03-22T03:53:46;101604.28;;;8.66;100.00
82931;BME280;72705;53.346;10.248;2024-03-22T03:56:12;101608.47;;;8.59;100.00
82931;BME280;72705;53.346;10.248;2024-03-22T03:58:37;101618.53;;;8.57;100.00
82931;BME280;72705;53.346;10.248;2024-03-22T04:01:09;101609.22;;;8.61;100.00
82931;BME280;72705;53.346;10.248;2024-03-22T04:03:34;101608.75;;;8.56;100.00
82931;BME280;72705;53.346;10.248;2024-03-22T04:06:00;101609.94;;;8.63;100.00
82931;BME280;72705;53.346;10.248;2024-03-22T04:08:26;101607.97;;;8.65;100.00
82931;BME280;72705;53.346;10.248;2024-03-22T04:10:55;101599.66;;;8.68;100.00
82931;BME280;72705;53.346;10.248;2024-03-22T04:13:24;101605.16;;;8.67;100.00
82931;BME280;72705;53.346;10.248;2024-03-22T04:15:50;101598.91;;;8.66;100.00
82931;BME280;72705;53.346;10.248;2024-03-22T04:18:16;101583.41;;;8.70;100.00
82931;BME280;72705;53.346;10.248;2024-03-22T04:20:41;101584.50;;;8.67;100.00
82931;BME280;72705;53.346;10.248;2024-03-22T04:23:08;101569.22;;;8.68;100.00
82931;BME280;72705;53.346;10.248;2024-03-22T04:25:33;101562.06;;;8.78;100.00
82931;BME280;72705;53.346;10.248;2024-03-22T04:27:58;101564.84;;;8.87;100.00
82931;BME280;72705;53.346;10.248;2024-03-22T04:30:28;101558.72;;;8.85;100.00
82931;BME280;72705;53.346;10.248;2024-03-22T04:32:53;101547.38;;;8.82;100.00
82931;BME280;72705;53.346;10.248;2024-03-22T04:35:18;101536.88;;;8.79;100.00
82931;BME280;72705;53.346;10.248;2024-03-22T04:37:44;101525.00;;;8.81;100.00
82931;BME280;72705;53.346;10.248;2024-03-22T04:40:09;101534.50;;;8.85;100.00
82931;BME280;72705;53.346;10.248;2024-03-22T04:42:35;101524.16;;;8.81;100.00
82931;BME280;72705;53.346;10.248;2024-03-22T04:45:00;101525.72;;;8.83;100.00
82931;BME280;72705;53.346;10.248;2024-03-22T04:47:26;101519.19;;;8.76;100.00
82931;BME280;72705;53.346;10.248;2024-03-22T04:49:53;101518.03;;;8.79;100.00
82931;BME280;72705;53.346;10.248;2024-03-22T04:52:18;101522.03;;;8.84;100.00
82931;BME280;72705;53.346;10.248;2024-03-22T04:54:43;101522.78;;;8.86;100.00
82931;BME280;72705;53.346;10.248;2024-03-22T04:57:09;101521.78;;;8.87;100.00
82931;BME280;72705;53.346;10.248;2024-03-22T04:59:35;101514.41;;;8.89;100.00
82931;BME280;72705;53.346;10.248;2024-03-22T05:02:01;101505.13;;;8.93;100.00
82931;BME280;72705;53.346;10.248;2024-03-22T05:04:27;101508.19;;;8.89;100.00
82931;BME280;72705;53.346;10.248;2024-03-22T05:06:52;101493.91;;;8.88;100.00
82931;BME280;72705;53.346;10.248;2024-03-22T05:09:17;101491.78;;;8.92;100.00
82931;BME280;72705;53.346;10.248;2024-03-22T05:11:43;101492.03;;;8.89;100.00
82931;BME280;72705;53.346;10.248;2024-03-22T05:14:08;101498.88;;;8.93;100.00
82931;BME280;72705;53.346;10.248;2024-03-22T05:16:33;101497.22;;;9.02;100.00
82931;BME280;72705;53.346;10.248;2024-03-22T05:18:59;101493.63;;;8.91;100.00
82931;BME280;72705;53.346;10.248;2024-03-22T05:21:24;101491.91;;;8.90;100.00
82931;BME280;72705;53.346;10.248;2024-03-22T05:23:51;101480.63;;;8.97;100.00
82931;BME280;72705;53.346;10.248;2024-03-22T05:26:17;101468.75;;;8.99;100.00
82931;BME280;72705;53.346;10.248;2024-03-22T05:28:44;101463.78;;;8.95;100.00
82931;BME280;72705;53.346;10.248;2024-03-22T05:31:09;101468.75;;;8.99;100.00
82931;BME280;72705;53.346;10.248;2024-03-22T05:33:35;101480.19;;;8.91;100.00
82931;BME280;72705;53.346;10.248;2024-03-22T05:36:00;101470.00;;;8.95;100.00
82931;BME280;72705;53.346;10.248;2024-03-22T05:38:25;101478.22;;;8.93;100.00
82931;BME280;72705;53.346;10.248;2024-03-22T05:40:51;101478.22;;;8.93;100.00
82931;BME280;72705;53.346;10.248;2024-03-22T05:43:16;101475.13;;;8.98;100.00
82931;BME280;72705;53.346;10.248;2024-03-22T05:45:42;101477.69;;;9.00;100.00
82931;BME280;72705;53.346;10.248;2024-03-22T05:48:07;101470.59;;;8.99;100.00
82931;BME280;72705;53.346;10.248;2024-03-22T05:50:32;101475.13;;;8.98;100.00
82931;BME280;72705;53.346;10.248;2024-03-22T05:52:58;101477.69;;;9.00;100.00
82931;BME280;72705;53.346;10.248;2024-03-22T05:55:23;101477.41;;;9.03;100.00
82931;BME280;72705;53.346;10.248;2024-03-22T05:57:52;101485.34;;;9.04;100.00
82931;BME280;72705;53.346;10.248;2024-03-22T06:00:18;101487.06;;;9.05;100.00
82931;BME280;72705;53.346;10.248;2024-03-22T06:02:43;101487.63;;;9.09;100.00
82931;BME280;72705;53.346;10.248;2024-03-22T06:05:09;101485.09;;;9.07;100.00
82931;BME280;72705;53.346;10.248;2024-03-22T06:07:35;101478.56;;;9.10;100.00
82931;BME280;72705;53.346;10.248;2024-03-22T06:10:08;101476.31;;;9.15;100.00
82931;BME280;72705;53.346;10.248;2024-03-22T06:12:35;101483.94;;;9.10;100.00
82931;BME280;72705;53.346;10.248;2024-03-22T06:15:00;101480.53;;;9.08;100.00
82931;BME280;72705;53.346;10.248;2024-03-22T06:17:27;101474.91;;;9.11;100.00
82931;BME280;72705;53.346;10.248;2024-03-22T06:19:53;101474.78;;;9.12;100.00
82931;BME280;72705;53.346;10.248;2024-03-22T06:22:18;101456.78;;;9.13;100.00
82931;BME280;72705;53.346;10.248;2024-03-22T06:24:44;101463.16;;;9.21;100.00
82931;BME280;72705;53.346;10.248;2024-03-22T06:27:10;101455.94;;;9.22;100.00
82931;BME280;72705;53.346;10.248;2024-03-22T06:29:35;101458.22;;;9.26;100.00
82931;BME280;72705;53.346;10.248;2024-03-22T06:32:01;101443.91;;;9.26;100.00
82931;BME280;72705;53.346;10.248;2024-03-22T06:34:27;101454.00;;;9.33;100.00
82931;BME280;72705;53.346;10.248;2024-03-22T06:36:52;101452.91;;;9.46;100.00
82931;BME280;72705;53.346;10.248;2024-03-22T06:39:18;101453.50;;;9.49;100.00
82931;BME280;72705;53.346;10.248;2024-03-22T06:41:44;101440.13;;;9.38;100.00
82931;BME280;72705;53.346;10.248;2024-03-22T06:44:10;101440.16;;;9.57;100.00
82931;BME280;72705;53.346;10.248;2024-03-22T06:46:37;101442.44;;;9.52;100.00
82931;BME280;72705;53.346;10.248;2024-03-22T06:49:02;101436.63;;;9.57;100.00
82931;BME280;72705;53.346;10.248;2024-03-22T06:51:27;101425.72;;;9.58;100.00
82931;BME280;72705;53.346;10.248;2024-03-22T06:53:53;101417.94;;;9.65;100.00
82931;BME280;72705;53.346;10.248;2024-03-22T06:56:18;101414.81;;;9.69;100.00
82931;BME280;72705;53.346;10.248;2024-03-22T06:58:45;101408.84;;;9.75;100.00
82931;BME280;72705;53.346;10.248;2024-03-22T07:01:11;101405.19;;;9.77;100.00
82931;BME280;72705;53.346;10.248;2024-03-22T07:03:37;101404.75;;;9.91;100.00
82931;BME280;72705;53.346;10.248;2024-03-22T07:06:02;101405.75;;;9.99;100.00
82931;BME280;72705;53.346;10.248;2024-03-22T07:08:28;101414.41;;;10.03;100.00
82931;BME280;72705;53.346;10.248;2024-03-22T07:10:53;101411.00;;;10.10;100.00
82931;BME280;72705;53.346;10.248;2024-03-22T07:13:19;101401.06;;;10.21;100.00
82931;BME280;72705;53.346;10.248;2024-03-22T07:15:45;101409.56;;;10.16;100.00
82931;BME280;72705;53.346;10.248;2024-03-22T07:18:13;101391.97;;;10.31;100.00
82931;BME280;72705;53.346;10.248;2024-03-22T07:20:38;101391.13;;;10.31;100.00
82931;BME280;72705;53.346;10.248;2024-03-22T07:23:03;101371.16;;;10.24;100.00
82931;BME280;72705;53.346;10.248;2024-03-22T07:25:29;101376.06;;;10.38;100.00
82931;BME280;72705;53.346;10.248;2024-03-22T07:27:55;101381.19;;;10.41;100.00
82931;BME280;72705;53.346;10.248;2024-03-22T07:30:20;101374.53;;;10.35;100.00
82931;BME280;72705;53.346;10.248;2024-03-22T07:32:46;101375.38;;;10.36;100.00
82931;BME280;72705;53.346;10.248;2024-03-22T07:35:12;101372.38;;;10.39;100.00
82931;BME280;72705;53.346;10.248;2024-03-22T07:37:38;101365.53;;;10.44;100.00
82931;BME280;72705;53.346;10.248;2024-03-22T07:40:03;101370.66;;;10.47;100.00
82931;BME280;72705;53.346;10.248;2024-03-22T07:42:30;101382.03;;;10.41;100.00
82931;BME280;72705;53.346;10.248;2024-03-22T07:44:57;101375.78;;;10.41;100.00
82931;BME280;72705;53.346;10.248;2024-03-22T07:47:23;101377.03;;;10.46;100.00
82931;BME280;72705;53.346;10.248;2024-03-22T07:49:48;101372.63;;;10.45;100.00
82931;BME280;72705;53.346;10.248;2024-03-22T07:52:13;101380.88;;;10.44;100.00
82931;BME280;72705;53.346;10.248;2024-03-22T07:54:39;101370.09;;;10.44;100.00
82931;BME280;72705;53.346;10.248;2024-03-22T07:57:04;101379.28;;;10.51;100.00
82931;BME280;72705;53.346;10.248;2024-03-22T07:59:30;101378.03;;;10.45;100.00
82931;BME280;72705;53.346;10.248;2024-03-22T08:01:55;101369.94;;;10.45;100.00
82931;BME280;72705;53.346;10.248;2024-03-22T08:04:22;101371.50;;;10.48;100.00
82931;BME280;72705;53.346;10.248;2024-03-22T08:06:50;101381.44;;;10.47;100.00
82931;BME280;72705;53.346;10.248;2024-03-22T08:09:15;101382.72;;;10.43;100.00
82931;BME280;72705;53.346;10.248;2024-03-22T08:11:41;101370.34;;;10.50;100.00
82931;BME280;72705;53.346;10.248;2024-03-22T08:14:07;101373.50;;;10.46;100.00
82931;BME280;72705;53.346;10.248;2024-03-22T08:16:32;101368.94;;;10.46;100.00
82931;BME280;72705;53.346;10.248;2024-03-22T08:18:57;101371.50;;;10.48;100.00
82931;BME280;72705;53.346;10.248;2024-03-22T08:21:23;101373.34;;;10.47;100.00
82931;BME280;72705;53.346;10.248;2024-03-22T08:23:51;101368.94;;;10.46;100.00
82931;BME280;72705;53.346;10.248;2024-03-22T08:26:17;101363.56;;;10.46;100.00
82931;BME280;72705;53.346;10.248;2024-03-22T08:28:44;101363.44;;;10.38;100.00
82931;BME280;72705;53.346;10.248;2024-03-22T08:31:10;101352.81;;;10.37;100.00
82931;BME280;72705;53.346;10.248;2024-03-22T08:33:35;101367.03;;;10.29;100.00
82931;BME280;72705;53.346;10.248;2024-03-22T08:36:01;101368.72;;;10.21;100.00
82931;BME280;72705;53.346;10.248;2024-03-22T08:38:26;101354.09;;;10.13;100.00
82931;BME280;72705;53.346;10.248;2024-03-22T08:40:52;101353.72;;;10.18;100.00
82931;BME280;72705;53.346;10.248;2024-03-22T08:43:17;101355.25;;;10.11;100.00
82931;BME280;72705;53.346;10.248;2024-03-22T08:45:42;101361.63;;;10.10;100.00
82931;BME280;72705;53.346;10.248;2024-03-22T08:48:09;101358.53;;;10.05;100.00
82931;BME280;72705;53.346;10.248;2024-03-22T08:50:34;101351.13;;;10.07;100.00
82931;BME280;72705;53.346;10.248;2024-03-22T08:53:00;101344.75;;;10.08;100.00
82931;BME280;72705;53.346;10.248;2024-03-22T08:55:28;101346.75;;;10.06;100.00
82931;BME280;72705;53.346;10.248;2024-03-22T08:57:54;101336.53;;;10.09;100.00
82931;BME280;72705;53.346;10.248;2024-03-22T09:00:19;101331.00;;;10.11;100.00
82931;BME280;72705;53.346;10.248;2024-03-22T09:02:44;101332.97;;;10.09;100.00
82931;BME280;72705;53.346;10.248;2024-03-22T09:05:09;101324.06;;;10.18;100.00
82931;BME280;72705;53.346;10.248;2024-03-22T09:07:36;101323.47;;;10.24;100.00
82931;BME280;72705;53.346;10.248;2024-03-22T09:10:01;101324.47;;;10.23;100.00
82931;BME280;72705;53.346;10.248;2024-03-22T09:12:27;101321.59;;;10.25;100.00
82931;BME280;72705;53.346;10.248;2024-03-22T09:14:53;101323.00;;;10.38;100.00
82931;BME280;72705;53.346;10.248;2024-03-22T09:17:18;101320.16;;;10.40;100.00
82931;BME280;72705;53.346;10.248;2024-03-22T09:19:43;101315.72;;;10.48;100.00
82931;BME280;72705;53.346;10.248;2024-03-22T09:22:10;101316.72;;;10.47;100.00
82931;BME280;72705;53.346;10.248;2024-03-22T09:24:35;101313.19;;;10.47;100.00
82931;BME280;72705;53.346;10.248;2024-03-22T09:27:02;101308.50;;;10.49;100.00
82931;BME280;72705;53.346;10.248;2024-03-22T09:29:33;101307.91;;;10.45;100.00
82931;BME280;72705;53.346;10.248;2024-03-22T09:31:59;101303.63;;;10.52;100.00
82931;BME280;72705;53.346;10.248;2024-03-22T09:34:24;101290.75;;;10.46;100.00
82931;BME280;72705;53.346;10.248;2024-03-22T09:36:51;101294.84;;;10.50;100.00
82931;BME280;72705;53.346;10.248;2024-03-22T09:39:17;101291.59;;;10.47;100.00
82931;BME280;72705;53.346;10.248;2024-03-22T09:41:43;101293.72;;;10.43;100.00
82931;BME280;72705;53.346;10.248;2024-03-22T09:44:19;101292.06;;;10.42;100.00
82931;BME280;72705;53.346;10.248;2024-03-22T09:46:47;101291.63;;;10.37;100.00
82931;BME280;72705;53.346;10.248;2024-03-22T09:49:15;101291.09;;;10.34;100.00
82931;BME280;72705;53.346;10.248;2024-03-22T09:51:43;101277.59;;;10.34;100.00
82931;BME280;72705;53.346;10.248;2024-03-22T09:54:09;101282.47;;;10.30;100.00
82931;BME280;72705;53.346;10.248;2024-03-22T09:56:35;101276.81;;;10.24;100.00
82931;BME280;72705;53.346;10.248;2024-03-22T09:59:03;101280.34;;;10.24;100.00
82931;BME280;72705;53.346;10.248;2024-03-22T10:01:29;101269.69;;;10.13;100.00
82931;BME280;72705;53.346;10.248;2024-03-22T10:03:55;101275.78;;;10.15;100.00
82931;BME280;72705;53.346;10.248;2024-03-22T10:06:20;101279.34;;;10.15;100.00
82931;BME280;72705;53.346;10.248;2024-03-22T10:08:46;101269.41;;;10.16;100.00
82931;BME280;72705;53.346;10.248;2024-03-22T10:11:13;101264.03;;;10.16;100.00
82931;BME280;72705;53.346;10.248;2024-03-22T10:13:38;101255.66;;;10.19;100.00
82931;BME280;72705;53.346;10.248;2024-03-22T10:16:04;101258.78;;;10.24;100.00
82931;BME280;72705;53.346;10.248;2024-03-22T10:18:32;101257.38;;;10.20;100.00
82931;BME280;72705;53.346;10.248;2024-03-22T10:21:03;101251.84;;;10.12;100.00
82931;BME280;72705;53.346;10.248;2024-03-22T10:23:29;101252.97;;;10.09;100.00
82931;BME280;72705;53.346;10.248;2024-03-22T10:25:58;101254.53;;;10.12;100.00
82931;BME280;72705;53.346;10.248;2024-03-22T10:28:27;101254.38;;;10.13;100.00
82931;BME280;72705;53.346;10.248;2024-03-22T10:30:53;101245.59;;;10.21;100.00
82931;BME280;72705;53.346;10.248;2024-03-22T10:33:19;101239.50;;;10.19;100.00
82931;BME280;72705;53.346;10.248;2024-03-22T10:35:53;101246.97;;;10.25;100.00
82931;BME280;72705;53.346;10.248;2024-03-22T10:38:20;101255.50;;;10.30;100.00
82931;BME280;72705;53.346;10.248;2024-03-22T10:40:46;101239.59;;;10.27;100.00
82931;BME280;72705;53.346;10.248;2024-03-22T10:43:13;101251.94;;;10.30;100.00
82931;BME280;72705;53.346;10.248;2024-03-22T10:45:40;101248.41;;;10.29;100.00
82931;BME280;72705;53.346;10.248;2024-03-22T10:48:09;101246.38;;;10.31;100.00
82931;BME280;72705;53.346;10.248;2024-03-22T10:50:38;101244.72;;;10.30;100.00
82931;BME280;72705;53.346;10.248;2024-03-22T10:53:06;101252.38;;;10.25;100.00
82931;BME280;72705;53.346;10.248;2024-03-22T10:55:34;101248.28;;;10.21;100.00
82931;BME280;72705;53.346;10.248;2024-03-22T10:58:01;101248.16;;;10.23;100.00
82931;BME280;72705;53.346;10.248;2024-03-22T11:00:30;101243.75;;;10.22;100.00
82931;BME280;72705;53.346;10.248;2024-03-22T11:02:56;101239.06;;;10.24;100.00
82931;BME280;72705;53.346;10.248;2024-03-22T11:05:22;101245.72;;;10.29;100.00
82931;BME280;72705;53.346;10.248;2024-03-22T11:07:47;101245.00;;;10.27;100.00
82931;BME280;72705;53.346;10.248;2024-03-22T11:10:13;101239.31;;;10.30;100.00
82931;BME280;72705;53.346;10.248;2024-03-22T11:12:40;101236.63;;;10.30;100.00
82931;BME280;72705;53.346;10.248;2024-03-22T11:15:05;101236.72;;;10.38;100.00
82931;BME280;72705;53.346;10.248;2024-03-22T11:17:31;101232.41;;;10.45;100.00
82931;BME280;72705;53.346;10.248;2024-03-22T11:19:56;101235.50;;;10.50;100.00
82931;BME280;72705;53.346;10.248;2024-03-22T11:22:22;101229.25;;;10.50;100.00
82931;BME280;72705;53.346;10.248;2024-03-22T11:24:47;101237.72;;;10.65;100.00
82931;BME280;72705;53.346;10.248;2024-03-22T11:27:13;101234.06;;;10.56;100.00
82931;BME280;72705;53.346;10.248;2024-03-22T11:29:39;101229.44;;;10.48;100.00
82931;BME280;72705;53.346;10.248;2024-03-22T11:32:09;101234.97;;;10.47;100.00
82931;BME280;72705;53.346;10.248;2024-03-22T11:34:36;101220.75;;;10.54;100.00
82931;BME280;72705;53.346;10.248;2024-03-22T11:37:01;101227.53;;;10.59;100.00
82931;BME280;72705;53.346;10.248;2024-03-22T11:39:27;101225.22;;;10.64;100.00
82931;BME280;72705;53.346;10.248;2024-03-22T11:41:52;101220.38;;;10.67;100.00
82931;BME280;72705;53.346;10.248;2024-03-22T11:44:18;101225.06;;;10.65;100.00
82931;BME280;72705;53.346;10.248;2024-03-22T11:46:44;101219.53;;;10.67;100.00
82931;BME280;72705;53.346;10.248;2024-03-22T11:49:10;101220.06;;;10.70;100.00
82931;BME280;72705;53.346;10.248;2024-03-22T11:51:36;101225.00;;;10.75;100.00
82931;BME280;72705;53.346;10.248;2024-03-22T11:54:05;101219.59;;;10.75;100.00
82931;BME280;72705;53.346;10.248;2024-03-22T11:56:34;101220.31;;;10.77;100.00
82931;BME280;72705;53.346;10.248;2024-03-22T11:59:00;101221.16;;;10.77;100.00
82931;BME280;72705;53.346;10.248;2024-03-22T12:01:27;101206.91;;;10.85;100.00
82931;BME280;72705;53.346;10.248;2024-03-22T12:03:53;101195.66;;;11.07;100.00
82931;BME280;72705;53.346;10.248;2024-03-22T12:06:20;101201.75;;;11.09;100.00
82931;BME280;72705;53.346;10.248;2024-03-22T12:08:46;101186.03;;;11.05;100.00
82931;BME280;72705;53.346;10.248;2024-03-22T12:11:11;101199.09;;;11.00;100.00
82931;BME280;72705;53.346;10.248;2024-03-22T12:13:40;101200.53;;;10.86;100.00
82931;BME280;72705;53.346;10.248;2024-03-22T12:16:05;101198.25;;;10.99;100.00
82931;BME280;72705;53.346;10.248;2024-03-22T12:18:31;101184.75;;;10.99;100.00
82931;BME280;72705;53.346;10.248;2024-03-22T12:20:56;101188.41;;;10.90;100.00
82931;BME280;72705;53.346;10.248;2024-03-22T12:23:22;101185.63;;;10.82;100.00
82931;BME280;72705;53.346;10.248;2024-03-22T12:25:49;101179.47;;;10.72;100.00
82931;BME280;72705;53.346;10.248;2024-03-22T12:28:15;101171.13;;;10.83;100.00